createdAt,value
2018-12-30T00:00:15.942Z,4.20
2018-12-30T00:02:44.769Z,5.40
2018-12-30T00:05:14.516Z,4.67
2018-12-30T00:07:44.465Z,4.20
2018-12-30T00:10:13.333Z,3.23
2018-12-30T00:12:42.179Z,4.30
2018-12-30T00:15:11.426Z,4.97
2018-12-30T00:17:41.234Z,4.50
2018-12-30T00:20:10.216Z,4.10
2018-12-30T00:22:39.134Z,4.50
2018-12-30T00:25:09.493Z,4.47
2018-12-30T00:27:39.045Z,4.13
2018-12-30T00:30:09.475Z,4.17
2018-12-30T00:32:39.859Z,4.17
2018-12-30T00:35:10.324Z,4.50
2018-12-30T00:37:39.242Z,4.00
2018-12-30T00:40:08.324Z,4.00
2018-12-30T00:42:39.636Z,4.33
2018-12-30T00:45:08.788Z,3.50
2018-12-30T00:47:37.752Z,5.17
2018-12-30T00:50:06.648Z,3.70
2018-12-30T00:52:35.575Z,4.47
2018-12-30T00:55:04.791Z,3.00
2018-12-30T00:57:33.686Z,5.50
2018-12-30T01:00:02.634Z,3.83
2018-12-30T01:02:32.624Z,3.47
2018-12-30T01:05:03.496Z,3.90
2018-12-30T01:07:33.703Z,3.93
2018-12-30T01:10:02.721Z,3.23
2018-12-30T01:12:31.611Z,3.30
2018-12-30T01:15:02.145Z,4.30
2018-12-30T01:17:31.072Z,3.17
2018-12-30T01:20:01.615Z,3.50
2018-12-30T01:22:32.259Z,4.50
2018-12-30T01:25:02.241Z,3.00
2018-12-30T01:27:31.136Z,4.37
2018-12-30T01:29:59.945Z,3.47
2018-12-30T01:32:28.956Z,3.43
2018-12-30T01:34:58.629Z,3.87
2018-12-30T01:37:27.502Z,2.93
2018-12-30T01:39:57.665Z,4.10
2018-12-30T01:42:26.580Z,3.10
2018-12-30T01:44:55.538Z,4.60
2018-12-30T01:47:24.808Z,6.00
2018-12-30T01:49:53.765Z,3.83
2018-12-30T01:52:24.093Z,3.20
2018-12-30T01:54:53.114Z,3.70
2018-12-30T01:57:22.095Z,4.90
2018-12-30T01:59:50.908Z,2.67
2018-12-30T02:02:19.786Z,2.63
2018-12-30T02:04:48.686Z,2.67
2018-12-30T02:07:17.611Z,3.27
2018-12-30T02:09:47.999Z,2.83
2018-12-30T02:12:16.903Z,2.70
2018-12-30T02:14:45.728Z,2.37
2018-12-30T02:17:14.487Z,3.00
2018-12-30T02:19:46.096Z,2.60
2018-12-30T02:22:15.869Z,2.77
2018-12-30T02:24:45.141Z,1.83
2018-12-30T02:27:13.997Z,2.17
2018-12-30T02:29:42.875Z,2.77
2018-12-30T02:32:12.065Z,2.30
2018-12-30T02:34:42.292Z,2.97
2018-12-30T02:37:12.423Z,2.50
2018-12-30T02:39:42.656Z,2.60
2018-12-30T02:42:11.997Z,2.30
2018-12-30T02:44:40.937Z,4.70
2018-12-30T02:47:09.729Z,3.33
2018-12-30T02:49:38.673Z,3.60
2018-12-30T02:52:07.638Z,2.67
2018-12-30T02:54:36.444Z,2.40
2018-12-30T02:57:05.339Z,2.73
2018-12-30T02:59:34.249Z,3.20
2018-12-30T03:02:04.655Z,3.17
2018-12-30T03:04:33.590Z,3.90
2018-12-30T03:07:02.523Z,3.90
2018-12-30T03:09:31.380Z,3.00
2018-12-30T03:12:00.206Z,3.63
2018-12-30T03:14:29.077Z,3.70
2018-12-30T03:16:57.959Z,2.77
2018-12-30T03:19:26.857Z,3.33
2018-12-30T03:21:59.303Z,3.47
2018-12-30T03:24:27.674Z,3.33
2018-12-30T03:26:56.482Z,4.13
2018-12-30T03:29:25.393Z,3.50
2018-12-30T03:31:54.253Z,4.27
2018-12-30T03:34:23.158Z,2.97
2018-12-30T03:36:52.129Z,3.67
2018-12-30T03:39:20.975Z,3.47
2018-12-30T03:41:49.969Z,2.63
2018-12-30T03:44:18.789Z,2.10
2018-12-30T03:46:47.728Z,2.70
2018-12-30T03:49:16.693Z,4.23
2018-12-30T03:51:45.734Z,3.77
2018-12-30T03:54:14.825Z,2.63
2018-12-30T03:56:43.709Z,3.03
2018-12-30T03:59:12.526Z,3.17
2018-12-30T04:01:41.465Z,2.67
2018-12-30T04:04:10.436Z,3.33
2018-12-30T04:06:39.520Z,2.73
2018-12-30T04:09:08.504Z,2.47
2018-12-30T04:11:38.752Z,2.47
2018-12-30T04:14:09.981Z,3.00
2018-12-30T04:16:38.872Z,2.80
2018-12-30T04:19:08.583Z,3.67
2018-12-30T04:21:37.497Z,3.40
2018-12-30T04:24:06.368Z,2.40
2018-12-30T04:26:35.233Z,3.27
2018-12-30T04:29:04.196Z,3.90
2018-12-30T04:31:33.633Z,3.93
2018-12-30T04:34:02.415Z,2.73
2018-12-30T04:36:35.684Z,3.00
2018-12-30T04:39:06.135Z,3.33
2018-12-30T04:41:35.039Z,3.27
2018-12-30T04:44:03.871Z,3.70
2018-12-30T04:46:34.141Z,3.93
2018-12-30T04:49:04.572Z,5.03
2018-12-30T04:51:33.454Z,3.00
2018-12-30T04:54:02.324Z,4.00
2018-12-30T04:56:31.204Z,2.73
2018-12-30T04:59:00.129Z,3.20
2018-12-30T05:01:29.112Z,3.80
2018-12-30T05:04:00.960Z,3.57
2018-12-30T05:06:30.993Z,3.90
2018-12-30T05:09:00.360Z,3.47
2018-12-30T05:11:29.256Z,2.90
2018-12-30T05:13:58.046Z,3.87
2018-12-30T05:16:26.966Z,3.23
2018-12-30T05:18:55.922Z,3.00
2018-12-30T05:21:24.937Z,3.40
2018-12-30T05:23:54.629Z,4.27
2018-12-30T05:26:23.553Z,3.83
2018-12-30T05:28:53.124Z,3.43
2018-12-30T05:31:22.159Z,3.83
2018-12-30T05:33:51.123Z,3.80
2018-12-30T05:36:20.132Z,2.70
2018-12-30T05:38:49.271Z,3.13
2018-12-30T05:41:18.233Z,3.17
2018-12-30T05:43:47.166Z,2.90
2018-12-30T05:46:16.030Z,3.13
2018-12-30T05:48:46.313Z,3.20
2018-12-30T05:51:15.854Z,3.20
2018-12-30T05:53:44.746Z,2.77
2018-12-30T05:56:15.068Z,2.43
2018-12-30T05:58:45.707Z,3.50
2018-12-30T06:01:17.378Z,3.53
2018-12-30T06:03:46.952Z,4.40
2018-12-30T06:06:16.126Z,4.03
2018-12-30T06:08:45.114Z,3.03
2018-12-30T06:11:14.028Z,3.50
2018-12-30T06:13:42.938Z,3.03
2018-12-30T06:16:12.052Z,2.47
2018-12-30T06:18:41.011Z,3.33
2018-12-30T06:21:12.277Z,3.93
2018-12-30T06:23:42.519Z,3.60
2018-12-30T06:26:11.603Z,3.90
2018-12-30T06:28:41.924Z,2.30
2018-12-30T06:31:11.144Z,3.07
2018-12-30T06:33:43.116Z,3.20
2018-12-30T06:36:11.968Z,2.87
2018-12-30T06:38:41.539Z,3.07
2018-12-30T06:41:11.031Z,2.97
2018-12-30T06:43:40.064Z,3.80
2018-12-30T06:46:09.072Z,3.20
2018-12-30T06:48:37.836Z,3.20
2018-12-30T06:51:07.094Z,2.37
2018-12-30T06:53:36.023Z,3.30
2018-12-30T06:56:04.915Z,4.03
2018-12-30T06:58:33.762Z,3.77
2018-12-30T07:01:02.962Z,4.10
2018-12-30T07:03:31.903Z,4.00
2018-12-30T07:06:05.288Z,3.63
2018-12-30T07:08:35.672Z,4.00
2018-12-30T07:11:05.955Z,3.33
2018-12-30T07:13:34.833Z,2.67
2018-12-30T07:16:04.862Z,3.57
2018-12-30T07:18:33.746Z,3.37
2018-12-30T07:21:03.995Z,3.07
2018-12-30T07:23:32.909Z,3.20
2018-12-30T07:26:01.916Z,2.90
2018-12-30T07:28:32.248Z,3.20
2018-12-30T07:31:01.522Z,2.97
2018-12-30T07:33:30.578Z,3.77
2018-12-30T07:36:01.063Z,3.37
2018-12-30T07:38:30.502Z,3.00
2018-12-30T07:41:00.903Z,3.03
2018-12-30T07:43:30.997Z,4.77
2018-12-30T07:46:01.376Z,4.10
2018-12-30T07:48:31.585Z,4.17
2018-12-30T07:51:00.562Z,3.03
2018-12-30T07:53:31.568Z,4.83
2018-12-30T07:56:01.986Z,3.70
2018-12-30T07:58:30.978Z,3.70
2018-12-30T08:01:00.841Z,3.90
2018-12-30T08:03:32.227Z,4.10
2018-12-30T08:06:01.129Z,3.40
2018-12-30T08:08:30.639Z,3.77
2018-12-30T08:10:59.613Z,4.00
2018-12-30T08:13:29.071Z,2.90
2018-12-30T08:15:57.981Z,4.80
2018-12-30T08:18:28.194Z,3.33
2018-12-30T08:20:57.122Z,4.00
2018-12-30T08:23:27.543Z,3.77
2018-12-30T08:25:57.938Z,4.77
2018-12-30T08:28:26.998Z,4.50
2018-12-30T08:30:56.127Z,3.47
2018-12-30T08:33:24.948Z,3.67
2018-12-30T08:35:54.425Z,3.30
2018-12-30T08:38:24.722Z,3.30
2018-12-30T08:40:54.831Z,3.53
2018-12-30T08:43:23.735Z,3.07
2018-12-30T08:45:54.837Z,5.00
2018-12-30T08:48:25.337Z,5.60
2018-12-30T08:50:54.285Z,5.67
2018-12-30T08:53:29.393Z,4.93
2018-12-30T08:55:55.372Z,5.00
2018-12-30T08:58:24.214Z,5.70
2018-12-30T09:00:53.136Z,3.40
2018-12-30T09:03:25.443Z,3.40
2018-12-30T09:05:54.356Z,3.87
2018-12-30T09:08:23.406Z,3.83
2018-12-30T09:10:52.303Z,3.90
2018-12-30T09:13:23.006Z,3.60
2018-12-30T09:15:51.914Z,3.27
2018-12-30T09:18:20.858Z,3.97
2018-12-30T09:20:49.723Z,4.50
2018-12-30T09:23:19.365Z,3.67
2018-12-30T09:25:48.244Z,2.90
2018-12-30T09:28:18.384Z,3.03
2018-12-30T09:30:48.799Z,3.70
2018-12-30T09:33:17.818Z,3.50
2018-12-30T09:35:49.679Z,3.43
2018-12-30T09:38:19.601Z,3.70
2018-12-30T09:40:48.862Z,6.60
2018-12-30T09:43:18.535Z,3.20
2018-12-30T09:45:47.460Z,3.20
2018-12-30T09:48:17.492Z,3.47
2018-12-30T09:50:47.872Z,4.40
2018-12-30T09:53:16.824Z,4.90
2018-12-30T09:55:45.960Z,3.20
2018-12-30T09:58:14.876Z,3.50
2018-12-30T10:00:43.831Z,3.40
2018-12-30T10:03:14.121Z,4.30
2018-12-30T10:05:43.098Z,3.80
2018-12-30T10:08:12.850Z,2.87
2018-12-30T10:10:41.796Z,3.50
2018-12-30T10:13:10.786Z,3.90
2018-12-30T10:15:39.696Z,4.33
2018-12-30T10:18:08.678Z,3.90
2018-12-30T10:20:37.564Z,2.90
2018-12-30T10:23:06.494Z,5.47
2018-12-30T10:25:36.312Z,3.80
2018-12-30T10:28:06.080Z,2.93
2018-12-30T10:30:36.170Z,3.17
2018-12-30T10:33:05.240Z,2.80
2018-12-30T10:35:34.307Z,3.43
2018-12-30T10:38:03.886Z,4.00
2018-12-30T10:40:32.828Z,3.47
2018-12-30T10:43:01.688Z,2.10
2018-12-30T10:45:32.322Z,3.30
2018-12-30T10:48:02.174Z,2.73
2018-12-30T10:50:31.087Z,2.60
2018-12-30T10:53:00.062Z,3.20
2018-12-30T10:55:31.494Z,2.77
2018-12-30T10:58:00.459Z,3.00
2018-12-30T11:00:31.533Z,1.87
2018-12-30T11:03:01.232Z,2.10
2018-12-30T11:05:32.101Z,2.70
2018-12-30T11:08:01.608Z,2.47
2018-12-30T11:10:30.701Z,3.10
2018-12-30T11:13:00.323Z,3.17
2018-12-30T11:15:29.940Z,2.57
2018-12-30T11:17:58.922Z,3.30
2018-12-30T11:20:27.934Z,2.57
2018-12-30T11:22:58.344Z,2.13
2018-12-30T11:25:27.321Z,2.93
2018-12-30T11:27:58.118Z,2.13
2018-12-30T11:30:27.367Z,2.17
2018-12-30T11:32:56.273Z,3.17
2018-12-30T11:35:25.318Z,2.30
2018-12-30T11:37:54.255Z,2.60
2018-12-30T11:40:24.493Z,2.20
2018-12-30T11:42:53.464Z,2.10
2018-12-30T11:45:22.408Z,3.10
2018-12-30T11:47:53.821Z,1.93
2018-12-30T11:50:22.770Z,2.80
2018-12-30T11:52:51.645Z,1.90
2018-12-30T11:55:21.284Z,1.97
2018-12-30T11:57:52.584Z,3.40
2018-12-30T12:00:21.471Z,2.73
2018-12-30T12:02:50.452Z,1.77
2018-12-30T12:05:20.947Z,2.33
2018-12-30T12:07:49.783Z,2.57
2018-12-30T12:10:21.532Z,2.20
2018-12-30T12:12:52.689Z,4.07
2018-12-30T12:15:22.912Z,1.70
2018-12-30T12:17:52.076Z,2.10
2018-12-30T12:20:21.628Z,1.67
2018-12-30T12:22:50.727Z,3.00
2018-12-30T12:25:19.757Z,2.40
2018-12-30T12:27:49.768Z,2.37
2018-12-30T12:30:20.598Z,2.20
2018-12-30T12:32:49.567Z,2.40
2018-12-30T12:35:20.243Z,2.20
2018-12-30T12:37:49.103Z,1.70
2018-12-30T12:40:18.191Z,2.20
2018-12-30T12:42:47.150Z,2.10
2018-12-30T12:45:17.267Z,2.50
2018-12-30T12:47:46.362Z,2.10
2018-12-30T12:50:16.487Z,1.30
2018-12-30T12:52:46.984Z,2.40
2018-12-30T12:55:17.110Z,2.20
2018-12-30T12:57:46.932Z,3.43
2018-12-30T13:00:15.964Z,2.90
2018-12-30T13:02:45.438Z,9.07
2018-12-30T13:05:15.763Z,9.40
2018-12-30T13:07:44.688Z,4.30
2018-12-30T13:10:16.408Z,3.10
2018-12-30T13:12:45.607Z,2.70
2018-12-30T13:15:14.533Z,3.67
2018-12-30T13:17:46.662Z,3.77
2018-12-30T13:20:15.568Z,3.13
2018-12-30T13:22:46.310Z,2.40
2018-12-30T13:25:16.148Z,3.10
2018-12-30T13:27:45.188Z,3.00
2018-12-30T13:30:14.296Z,3.17
2018-12-30T13:32:46.081Z,7.27
2018-12-30T13:35:16.414Z,3.20
2018-12-30T13:37:47.880Z,2.67
2018-12-30T13:40:16.903Z,3.70
2018-12-30T13:42:46.596Z,4.30
2018-12-30T13:45:15.938Z,3.30
2018-12-30T13:47:46.583Z,4.00
2018-12-30T13:50:15.896Z,5.30
2018-12-30T13:52:45.494Z,4.63
2018-12-30T13:55:15.187Z,3.80
2018-12-30T13:57:44.191Z,3.40
2018-12-30T14:00:17.568Z,4.40
2018-12-30T14:02:48.541Z,4.20
2018-12-30T14:05:18.808Z,3.30
2018-12-30T14:07:48.273Z,3.60
2018-12-30T14:10:18.817Z,3.60
2018-12-30T14:12:47.940Z,4.03
2018-12-30T14:15:18.576Z,3.47
2018-12-30T14:17:47.506Z,3.30
2018-12-30T14:20:26.738Z,3.73
2018-12-30T14:22:48.039Z,4.00
2018-12-30T14:25:16.919Z,4.03
2018-12-30T14:27:45.873Z,3.70
2018-12-30T14:30:17.324Z,3.53
2018-12-30T14:32:47.873Z,3.27
2018-12-30T14:35:16.842Z,3.10
2018-12-30T14:37:45.789Z,3.87
2018-12-30T14:40:16.277Z,4.13
2018-12-30T14:42:45.206Z,3.30
2018-12-30T14:45:15.506Z,3.37
2018-12-30T14:47:44.705Z,3.37
2018-12-30T14:50:15.058Z,3.57
2018-12-30T14:52:44.188Z,4.83
2018-12-30T14:55:13.061Z,4.13
2018-12-30T14:57:42.670Z,7.30
2018-12-30T15:00:12.900Z,4.90
2018-12-30T15:02:42.539Z,3.30
2018-12-30T15:05:11.607Z,3.83
2018-12-30T15:07:41.027Z,2.90
2018-12-30T15:10:11.354Z,2.80
2018-12-30T15:12:41.126Z,3.03
2018-12-30T15:15:11.247Z,3.07
2018-12-30T15:17:40.309Z,3.90
2018-12-30T15:20:11.414Z,3.80
2018-12-30T15:22:41.218Z,4.70
2018-12-30T15:25:12.226Z,3.77
2018-12-30T15:27:41.159Z,6.60
2018-12-30T15:30:11.008Z,5.10
2018-12-30T15:32:39.997Z,4.93
2018-12-30T15:35:10.766Z,4.50
2018-12-30T15:37:40.419Z,4.93
2018-12-30T15:40:09.305Z,4.97
2018-12-30T15:42:42.114Z,4.33
2018-12-30T15:45:11.723Z,5.30
2018-12-30T15:47:40.821Z,4.40
2018-12-30T15:50:11.920Z,4.70
2018-12-30T15:52:45.201Z,4.83
2018-12-30T15:55:19.430Z,4.50
2018-12-30T15:57:46.356Z,4.83
2018-12-30T16:00:15.422Z,4.40
2018-12-30T16:02:46.271Z,7.33
2018-12-30T16:05:17.171Z,13.67
2018-12-30T16:07:45.811Z,9.70
2018-12-30T16:10:15.021Z,4.93
2018-12-30T16:12:43.987Z,4.90
2018-12-30T16:15:15.159Z,5.07
2018-12-30T16:17:45.525Z,4.90
2018-12-30T16:20:15.322Z,4.80
2018-12-30T16:22:44.234Z,5.23
2018-12-30T16:25:13.225Z,5.80
2018-12-30T16:27:44.556Z,8.67
2018-12-30T16:30:14.095Z,6.93
2018-12-30T16:32:44.408Z,7.90
2018-12-30T16:35:13.807Z,7.97
2018-12-30T16:37:44.223Z,8.70
2018-12-30T16:40:13.225Z,8.50
2018-12-30T16:42:42.091Z,10.17
2018-12-30T16:45:11.139Z,9.90
2018-12-30T16:47:41.959Z,10.37
2018-12-30T16:50:11.038Z,11.70
2018-12-30T16:52:40.124Z,11.73
2018-12-30T16:55:09.120Z,13.47
2018-12-30T16:57:38.008Z,11.27
2018-12-30T17:00:10.011Z,10.90
2018-12-30T17:02:38.961Z,10.67
2018-12-30T17:05:10.697Z,13.17
2018-12-30T17:07:40.169Z,11.97
2018-12-30T17:10:11.515Z,11.57
2018-12-30T17:12:40.587Z,13.43
2018-12-30T17:15:10.686Z,11.73
2018-12-30T17:17:39.651Z,12.77
2018-12-30T17:20:10.159Z,12.43
2018-12-30T17:22:39.100Z,12.10
2018-12-30T17:25:10.001Z,12.97
2018-12-30T17:27:38.989Z,12.23
2018-12-30T17:30:10.815Z,11.90
2018-12-30T17:32:40.213Z,9.90
2018-12-30T17:35:09.299Z,13.57
2018-12-30T17:37:40.646Z,11.80
2018-12-30T17:40:12.656Z,13.03
2018-12-30T17:42:41.627Z,12.87
2018-12-30T17:45:10.522Z,15.60
2018-12-30T17:47:40.873Z,17.23
2018-12-30T17:50:10.425Z,16.23
2018-12-30T17:52:40.808Z,15.97
2018-12-30T17:55:11.391Z,16.73
2018-12-30T17:57:40.214Z,17.60
2018-12-30T18:00:09.803Z,18.77
2018-12-30T18:02:42.446Z,17.23
2018-12-30T18:05:11.335Z,20.13
2018-12-30T18:07:41.534Z,22.33
2018-12-30T18:10:11.251Z,22.80
2018-12-30T18:12:40.174Z,19.97
2018-12-30T18:15:10.526Z,21.30
2018-12-30T18:17:41.558Z,23.13
2018-12-30T18:20:10.842Z,21.93
2018-12-30T18:22:40.507Z,23.10
2018-12-30T18:25:10.874Z,23.67
2018-12-30T18:27:39.865Z,21.60
2018-12-30T18:30:13.338Z,23.33
2018-12-30T18:32:43.474Z,25.77
2018-12-30T18:35:12.271Z,24.17
2018-12-30T18:37:41.222Z,26.67
2018-12-30T18:40:10.160Z,26.27
2018-12-30T18:42:39.244Z,27.17
2018-12-30T18:45:10.303Z,31.00
2018-12-30T18:47:39.431Z,30.80
2018-12-30T18:50:09.762Z,31.00
2018-12-30T18:52:40.176Z,30.47
2018-12-30T18:55:10.810Z,26.93
2018-12-30T18:57:41.758Z,28.90
2018-12-30T19:00:13.739Z,29.63
2018-12-30T19:02:44.223Z,27.27
2018-12-30T19:05:13.353Z,29.17
2018-12-30T19:07:42.775Z,29.40
2018-12-30T19:10:13.421Z,28.77
2018-12-30T19:12:42.476Z,28.70
2018-12-30T19:15:11.442Z,26.90
2018-12-30T19:17:40.487Z,28.33
2018-12-30T19:20:10.328Z,28.90
2018-12-30T19:22:40.187Z,27.70
2018-12-30T19:25:09.256Z,31.37
2018-12-30T19:27:38.290Z,29.70
2018-12-30T19:30:10.580Z,30.50
2018-12-30T19:32:40.597Z,29.90
2018-12-30T19:35:09.740Z,30.40
2018-12-30T19:37:38.754Z,30.70
2018-12-30T19:40:10.149Z,31.70
2018-12-30T19:42:39.137Z,28.40
2018-12-30T19:45:08.154Z,31.23
2018-12-30T19:47:39.031Z,31.20
2018-12-30T19:50:08.182Z,31.93
2018-12-30T19:52:37.170Z,32.37
2018-12-30T19:55:07.558Z,36.37
2018-12-30T19:57:36.996Z,40.50
2018-12-30T20:00:12.933Z,40.10
2018-12-30T20:02:42.511Z,39.93
2018-12-30T20:05:11.647Z,37.13
2018-12-30T20:07:42.252Z,35.57
2018-12-30T20:10:13.046Z,35.60
2018-12-30T20:12:43.722Z,34.73
2018-12-30T20:15:14.657Z,39.10
2018-12-30T20:17:43.482Z,36.73
2018-12-30T20:20:15.581Z,40.43
2018-12-30T20:22:45.496Z,37.23
2018-12-30T20:25:14.450Z,36.80
2018-12-30T20:27:43.335Z,37.33
2018-12-30T20:30:12.623Z,42.40
2018-12-30T20:32:42.589Z,44.17
2018-12-30T20:35:11.662Z,43.37
2018-12-30T20:37:44.050Z,39.97
2018-12-30T20:40:13.186Z,37.63
2018-12-30T20:42:42.446Z,39.10
2018-12-30T20:45:11.433Z,41.93
2018-12-30T20:47:40.437Z,38.60
2018-12-30T20:50:09.380Z,39.23
2018-12-30T20:52:38.330Z,37.73
2018-12-30T20:55:07.379Z,36.77
2018-12-30T20:57:37.025Z,37.10
2018-12-30T21:00:08.538Z,38.60
2018-12-30T21:02:37.416Z,37.03
2018-12-30T21:05:08.158Z,41.73
2018-12-30T21:07:37.123Z,40.87
2018-12-30T21:10:07.609Z,40.10
2018-12-30T21:12:39.582Z,39.57
2018-12-30T21:15:08.611Z,37.00
2018-12-30T21:17:37.676Z,37.90
2018-12-30T21:20:08.471Z,37.50
2018-12-30T21:22:38.908Z,38.27
2018-12-30T21:25:11.797Z,38.37
2018-12-30T21:27:40.649Z,36.47
2018-12-30T21:30:10.489Z,37.57
2018-12-30T21:32:39.689Z,37.40
2018-12-30T21:35:08.769Z,37.13
2018-12-30T21:37:37.677Z,36.97
2018-12-30T21:40:09.522Z,40.07
2018-12-30T21:42:43.708Z,39.50
2018-12-30T21:45:09.409Z,39.90
2018-12-30T21:47:38.694Z,39.17
2018-12-30T21:50:08.470Z,40.80
2018-12-30T21:52:37.485Z,40.70
2018-12-30T21:55:06.778Z,38.90
2018-12-30T21:57:36.574Z,37.90
2018-12-30T22:00:09.874Z,42.00
2018-12-30T22:02:41.842Z,41.97
2018-12-30T22:05:10.516Z,41.93
2018-12-30T22:07:40.135Z,40.77
2018-12-30T22:10:17.130Z,43.23
2018-12-30T22:12:42.323Z,40.90
2018-12-30T22:15:11.210Z,40.67
2018-12-30T22:17:40.182Z,37.60
2018-12-30T22:20:09.422Z,38.43
2018-12-30T22:22:38.359Z,37.23
2018-12-30T22:25:10.232Z,36.70
2018-12-30T22:27:39.146Z,36.53
2018-12-30T22:30:09.793Z,39.97
2018-12-30T22:32:40.048Z,36.73
2018-12-30T22:35:09.593Z,40.00
2018-12-30T22:37:40.036Z,38.73
2018-12-30T22:40:09.319Z,40.30
2018-12-30T22:42:38.265Z,40.27
2018-12-30T22:45:07.365Z,42.93
2018-12-30T22:47:37.648Z,40.20
2018-12-30T22:50:07.968Z,40.73
2018-12-30T22:52:36.879Z,40.20
2018-12-30T22:55:06.317Z,38.43
2018-12-30T22:57:35.223Z,40.07
2018-12-30T23:00:06.727Z,41.00
2018-12-30T23:02:35.639Z,39.27
2018-12-30T23:05:04.950Z,39.00
2018-12-30T23:07:33.983Z,37.07
2018-12-30T23:10:03.245Z,38.00
2018-12-30T23:12:32.355Z,38.13
2018-12-30T23:15:01.196Z,36.10
2018-12-30T23:17:30.233Z,35.03
2018-12-30T23:19:59.121Z,34.30
2018-12-30T23:22:28.303Z,35.47
2018-12-30T23:24:57.202Z,33.90
2018-12-30T23:27:27.302Z,32.03
2018-12-30T23:29:56.240Z,31.70
2018-12-30T23:32:26.714Z,32.07
2018-12-30T23:34:57.393Z,32.67
2018-12-30T23:37:26.366Z,31.00
2018-12-30T23:39:55.597Z,29.47
2018-12-30T23:42:24.637Z,28.10
2018-12-30T23:44:53.544Z,27.70
2018-12-30T23:47:22.621Z,27.20
2018-12-30T23:49:51.488Z,27.07
2018-12-30T23:52:20.331Z,28.43
2018-12-30T23:54:49.239Z,26.37
2018-12-30T23:57:18.154Z,25.00
2018-12-30T23:59:48.556Z,27.67
